Time;durP1;ratioP1;P1;durP2;ratioP2;P2;SDS_P1;SDS_P2;PMS_P1;PMS_P2;Temp;Humidity;BMP_temperature;BMP_pressure;BME280_temperature;BME280_humidity;BME280_pressure;Samples;Min_cycle;Max_cycle;Signal;HPM_P1;HPM_P2
2021/06/18 00:00:30;;;;;;;10.35;3.05;;;22.80;66.90;;;;;;5098583;28;20431;-69
2021/06/18 00:02:57;;;;;;;4.43;2.90;;;22.80;66.30;;;;;;5098893;28;20051;-69
2021/06/18 00:05:25;;;;;;;5.43;2.53;;;22.90;67.00;;;;;;5098679;28;20024;-69
2021/06/18 00:07:51;;;;;;;7.38;3.20;;;22.90;65.90;;;;;;5098738;28;20032;-69
2021/06/18 00:10:20;;;;;;;4.90;2.60;;;22.90;65.90;;;;;;5098369;28;20036;-69
2021/06/18 00:12:46;;;;;;;5.90;2.83;;;22.80;65.10;;;;;;5098573;28;20151;-69
2021/06/18 00:15:13;;;;;;;4.15;2.63;;;22.80;65.10;;;;;;5098487;28;20103;-69
2021/06/18 00:17:39;;;;;;;3.47;2.55;;;22.80;65.80;;;;;;5098233;28;20024;-69
2021/06/18 00:20:06;;;;;;;5.05;2.83;;;22.80;64.40;;;;;;5098497;28;20064;-69
2021/06/18 00:22:32;;;;;;;3.83;2.33;;;22.80;63.90;;;;;;5097303;28;20433;-69
2021/06/18 00:24:57;;;;;;;5.85;2.42;;;22.70;63.90;;;;;;5098415;28;20058;-69
2021/06/18 00:27:24;;;;;;;10.43;4.05;;;22.70;66.20;;;;;;5098365;28;20324;-69
2021/06/18 00:29:50;;;;;;;12.13;3.78;;;22.60;66.60;;;;;;5098061;28;20048;-69
2021/06/18 00:32:16;;;;;;;5.13;2.60;;;22.50;70.20;;;;;;5098243;28;20048;-69
2021/06/18 00:34:42;;;;;;;4.95;2.75;;;22.20;72.40;;;;;;5098152;28;20435;-69
2021/06/18 00:37:07;;;;;;;4.13;2.75;;;22.10;72.50;;;;;;5098100;28;20020;-68
2021/06/18 00:39:34;;;;;;;6.68;3.10;;;21.80;75.00;;;;;;5098135;28;20337;-68
2021/06/18 00:42:00;;;;;;;5.57;3.15;;;21.40;78.60;;;;;;5098068;28;20020;-68
2021/06/18 00:44:26;;;;;;;6.60;3.97;;;21.00;79.10;;;;;;5098200;28;20107;-68
2021/06/18 00:46:51;;;;;;;3.75;3.08;;;20.70;81.20;;;;;;5097617;28;20385;-68
2021/06/18 00:49:17;;;;;;;5.13;3.17;;;20.50;80.10;;;;;;5097953;28;20051;-68
2021/06/18 00:51:44;;;;;;;5.57;3.78;;;20.40;81.70;;;;;;5097931;28;20370;-68
2021/06/18 00:54:12;;;;;;;8.40;4.45;;;20.30;82.90;;;;;;5097494;28;20031;-68
2021/06/18 00:56:39;;;;;;;4.65;3.05;;;20.30;85.30;;;;;;5097779;28;20021;-68
2021/06/18 00:59:06;;;;;;;6.22;3.25;;;20.30;78.10;;;;;;5097426;28;20028;-69
2021/06/18 01:01:32;;;;;;;5.97;3.45;;;20.40;80.40;;;;;;5096421;28;20096;-68
2021/06/18 01:03:57;;;;;;;8.13;3.40;;;20.40;79.80;;;;;;5097447;28;20114;-68
2021/06/18 01:06:30;;;;;;;6.47;3.42;;;20.60;79.40;;;;;;5097305;28;20095;-68
2021/06/18 01:09:03;;;;;;;5.15;3.72;;;20.70;78.80;;;;;;5097294;28;20158;-68
2021/06/18 01:12:05;;;;;;;5.20;3.50;;;20.80;79.20;;;;;;5097364;28;20423;-68
2021/06/18 01:14:52;;;;;;;4.75;3.75;;;20.90;80.00;;;;;;5097545;28;20427;-68
2021/06/18 01:17:23;;;;;;;6.53;4.22;;;20.80;78.10;;;;;;5097103;28;20099;-68
2021/06/18 01:20:22;;;;;;;5.47;4.45;;;20.80;77.90;;;;;;5097506;28;20025;-68
2021/06/18 01:22:51;;;;;;;6.38;4.38;;;20.90;78.80;;;;;;5097437;28;20133;-68
2021/06/18 01:25:36;;;;;;;8.98;4.80;;;20.90;80.20;;;;;;5097373;28;20028;-68
2021/06/18 01:28:39;;;;;;;11.65;5.13;;;20.80;79.60;;;;;;5097372;28;20050;-68
2021/06/18 01:31:06;;;;;;;6.40;4.82;;;20.70;81.70;;;;;;5096854;28;20079;-68
2021/06/18 01:33:34;;;;;;;7.45;5.55;;;20.50;82.10;;;;;;5097133;28;20032;-68
2021/06/18 01:36:01;;;;;;;8.52;5.32;;;20.50;81.90;;;;;;5097138;28;20047;-69
2021/06/18 01:38:30;;;;;;;7.00;4.72;;;20.50;82.30;;;;;;5097219;28;20027;-69
2021/06/18 01:41:01;;;;;;;9.35;6.00;;;20.60;79.70;;;;;;5097175;28;20031;-69
2021/06/18 01:43:29;;;;;;;8.60;5.00;;;20.60;80.50;;;;;;5096748;28;20028;-69
2021/06/18 01:45:57;;;;;;;8.85;5.65;;;20.70;80.80;;;;;;5097052;28;20036;-69
2021/06/18 01:48:24;;;;;;;9.45;6.00;;;20.70;80.00;;;;;;5097028;28;20078;-69
2021/06/18 01:50:53;;;;;;;9.00;5.47;;;20.80;81.70;;;;;;5097063;28;20020;-69
2021/06/18 01:53:21;;;;;;;6.78;5.50;;;20.80;79.90;;;;;;5097006;28;20028;-69
2021/06/18 01:55:49;;;;;;;7.55;5.00;;;20.90;80.50;;;;;;5096937;28;20316;-69
2021/06/18 01:58:18;;;;;;;8.48;5.30;;;21.00;79.50;;;;;;5096970;28;20396;-69
2021/06/18 02:00:49;;;;;;;6.72;5.30;;;21.00;79.50;;;;;;5096665;28;20404;-69
2021/06/18 02:03:20;;;;;;;9.95;5.07;;;21.00;80.70;;;;;;5096657;28;20484;-69
2021/06/18 02:05:46;;;;;;;5.68;5.05;;;21.00;79.80;;;;;;5096906;28;20308;-69
2021/06/18 02:08:14;;;;;;;7.70;4.82;;;21.00;80.40;;;;;;5096874;28;20028;-69
2021/06/18 02:10:42;;;;;;;6.97;5.55;;;20.90;81.60;;;;;;5096893;28;20316;-69
2021/06/18 02:13:09;;;;;;;7.93;5.50;;;20.90;80.90;;;;;;5096565;28;20032;-69
2021/06/18 02:15:40;;;;;;;9.35;6.40;;;21.00;81.00;;;;;;5096712;28;20460;-69
2021/06/18 02:18:12;;;;;;;9.57;5.90;;;20.90;80.60;;;;;;5096451;28;20111;-69
2021/06/18 02:20:39;;;;;;;9.73;6.20;;;20.90;82.60;;;;;;5096812;28;20024;-69
2021/06/18 02:23:09;;;;;;;9.27;5.97;;;20.90;83.20;;;;;;5096747;28;20290;-69
2021/06/18 02:25:38;;;;;;;11.38;5.93;;;20.80;84.30;;;;;;5096453;28;20032;-69
2021/06/18 02:28:05;;;;;;;7.55;6.65;;;20.70;84.70;;;;;;5096712;28;20024;-69
2021/06/18 02:30:32;;;;;;;7.20;6.32;;;20.60;85.90;;;;;;5099513;28;20052;-69
2021/06/18 02:32:59;;;;;;;8.07;6.43;;;20.40;85.30;;;;;;5100561;28;20375;-68
2021/06/18 02:35:26;;;;;;;8.00;6.28;;;20.40;85.90;;;;;;5100125;28;20485;-69
2021/06/18 02:37:52;;;;;;;7.15;5.82;;;20.40;85.90;;;;;;5100473;28;20047;-69
2021/06/18 02:40:17;;;;;;;7.45;6.55;;;20.40;84.80;;;;;;5100447;28;20462;-69
2021/06/18 02:42:43;;;;;;;10.73;6.50;;;20.40;85.10;;;;;;5100336;28;20054;-69
2021/06/18 02:45:10;;;;;;;7.75;5.72;;;20.40;85.10;;;;;;5100024;28;20028;-69
2021/06/18 02:47:55;;;;;;;10.35;6.50;;;20.30;84.90;;;;;;5100015;28;20035;-69
2021/06/18 02:50:40;;;;;;;8.45;5.95;;;20.20;86.80;;;;;;5100280;28;20032;-69
2021/06/18 02:53:12;;;;;;;8.23;5.88;;;20.10;85.50;;;;;;5100261;28;20040;-69
2021/06/18 02:55:47;;;;;;;7.03;5.43;;;20.10;84.60;;;;;;5100105;28;20359;-69
2021/06/18 02:58:19;;;;;;;8.15;4.70;;;20.10;86.00;;;;;;5099866;28;20099;-69
2021/06/18 03:00:45;;;;;;;4.78;4.07;;;20.00;84.10;;;;;;5100098;28;20353;-69
2021/06/18 03:03:17;;;;;;;7.35;6.65;;;19.90;83.80;;;;;;5100034;28;20410;-69
2021/06/18 03:05:46;;;;;;;9.63;5.63;;;20.00;86.50;;;;;;5099652;28;20039;-69
2021/06/18 03:08:14;;;;;;;6.85;5.82;;;20.10;86.00;;;;;;5100219;28;20035;-69
2021/06/18 03:10:44;;;;;;;7.10;6.30;;;20.30;85.60;;;;;;5098583;28;20139;-69
2021/06/18 03:13:26;;;;;;;8.75;6.20;;;20.40;85.10;;;;;;5099438;28;20090;-69
2021/06/18 03:15:52;;;;;;;6.82;6.13;;;20.60;83.30;;;;;;5099694;28;20301;-69
2021/06/18 03:18:21;;;;;;;8.65;6.80;;;20.70;83.60;;;;;;5099765;28;20035;-69
2021/06/18 03:20:51;;;;;;;10.25;6.63;;;20.80;82.40;;;;;;5099692;28;20054;-69
2021/06/18 03:23:19;;;;;;;9.52;6.32;;;20.80;82.90;;;;;;5099655;28;20051;-69
2021/06/18 03:25:46;;;;;;;7.95;6.63;;;20.70;84.00;;;;;;5099231;28;20427;-69
2021/06/18 03:28:13;;;;;;;7.55;6.68;;;20.80;83.10;;;;;;5099239;28;20049;-69
2021/06/18 03:30:39;;;;;;;8.32;6.95;;;20.80;83.30;;;;;;5099143;28;20321;-69
2021/06/18 03:33:07;;;;;;;10.10;7.50;;;20.70;84.40;;;;;;5099120;28;20028;-69
2021/06/18 03:35:34;;;;;;;9.77;7.18;;;20.60;84.90;;;;;;5098991;28;20028;-69
2021/06/18 03:38:00;;;;;;;10.10;7.70;;;20.40;86.30;;;;;;5099322;28;20024;-69
2021/06/18 03:40:26;;;;;;;11.98;7.63;;;20.40;85.60;;;;;;5098627;28;20432;-69
2021/06/18 03:42:53;;;;;;;9.50;7.32;;;20.40;85.80;;;;;;5099200;28;20085;-69
2021/06/18 03:45:21;;;;;;;7.25;6.18;;;20.40;84.40;;;;;;5098906;28;20055;-69
2021/06/18 03:47:48;;;;;;;6.00;5.40;;;20.50;83.60;;;;;;5099183;28;20028;-69
2021/06/18 03:50:23;;;;;;;7.95;6.00;;;20.60;81.80;;;;;;5099106;28;20111;-69
2021/06/18 03:52:49;;;;;;;7.80;6.28;;;20.80;83.70;;;;;;5098812;28;20032;-69
2021/06/18 03:55:15;;;;;;;9.20;5.70;;;20.80;83.70;;;;;;5098917;28;20465;-69
2021/06/18 03:57:44;;;;;;;7.63;4.65;;;20.80;81.20;;;;;;5099258;28;20052;-69
2021/06/18 04:00:11;;;;;;;10.13;4.18;;;20.90;79.90;;;;;;5098898;28;20022;-69
2021/06/18 04:02:37;;;;;;;7.55;5.95;;;21.00;79.60;;;;;;5098562;28;20020;-69
2021/06/18 04:05:04;;;;;;;7.22;5.85;;;21.10;82.70;;;;;;5098794;28;20362;-69
2021/06/18 04:07:31;;;;;;;8.23;6.47;;;21.10;82.70;;;;;;5098460;28;20439;-69
2021/06/18 04:09:58;;;;;;;9.00;7.20;;;21.10;82.70;;;;;;5098426;28;20525;-69
2021/06/18 04:12:24;;;;;;;7.18;5.72;;;21.10;83.30;;;;;;5098680;28;20024;-69
2021/06/18 04:14:50;;;;;;;6.53;5.30;;;21.10;82.20;;;;;;5098697;28;20032;-69
2021/06/18 04:17:16;;;;;;;5.82;5.10;;;21.10;82.40;;;;;;5098593;28;20027;-69
2021/06/18 04:19:45;;;;;;;5.25;4.75;;;21.10;82.20;;;;;;5098222;28;20099;-69
2021/06/18 04:22:16;;;;;;;5.57;4.63;;;21.20;82.20;;;;;;5098179;28;20023;-69
2021/06/18 04:24:41;;;;;;;7.30;4.60;;;21.40;83.90;;;;;;5098167;28;20447;-69
2021/06/18 04:27:07;;;;;;;5.95;4.65;;;21.40;81.90;;;;;;5098001;28;20032;-69
2021/06/18 04:29:33;;;;;;;6.88;5.53;;;21.40;83.20;;;;;;5098133;28;20027;-69
2021/06/18 04:31:58;;;;;;;6.72;5.20;;;21.40;83.70;;;;;;5098000;28;20028;-69
2021/06/18 04:34:24;;;;;;;5.00;4.32;;;21.40;82.70;;;;;;5098203;28;20016;-69
2021/06/18 04:36:50;;;;;;;8.80;4.70;;;21.50;82.30;;;;;;5098156;28;20031;-69
2021/06/18 04:39:16;;;;;;;5.63;4.80;;;21.60;85.20;;;;;;5097894;28;20458;-69
2021/06/18 04:41:42;;;;;;;5.13;4.63;;;21.60;84.50;;;;;;5098128;28;20106;-69
2021/06/18 04:44:08;;;;;;;5.20;4.40;;;21.70;84.10;;;;;;5098199;28;20036;-69
2021/06/18 04:46:34;;;;;;;6.00;4.65;;;21.70;84.80;;;;;;5097677;28;20463;-69
2021/06/18 04:49:00;;;;;;;5.18;3.92;;;21.60;82.60;;;;;;5097664;28;20051;-69
2021/06/18 04:51:26;;;;;;;5.30;3.90;;;21.60;82.40;;;;;;5097039;28;20063;-69
2021/06/18 04:53:55;;;;;;;7.40;4.07;;;21.70;81.60;;;;;;5097713;28;20031;-69
2021/06/18 04:56:21;;;;;;;4.40;3.88;;;21.80;82.10;;;;;;5097547;28;20032;-69
2021/06/18 04:58:47;;;;;;;5.57;4.57;;;21.90;83.30;;;;;;5097544;28;20107;-69
2021/06/18 05:01:13;;;;;;;6.05;5.18;;;21.90;83.30;;;;;;5097475;28;20058;-69
2021/06/18 05:03:38;;;;;;;5.65;4.30;;;22.10;83.30;;;;;;5097454;28;20020;-69
2021/06/18 05:06:04;;;;;;;5.10;4.60;;;22.20;81.80;;;;;;5097648;28;20024;-69
2021/06/18 05:08:30;;;;;;;4.63;3.25;;;22.40;83.10;;;;;;5097302;28;20047;-69
2021/06/18 05:10:56;;;;;;;3.45;3.05;;;22.50;74.50;;;;;;5097632;28;20059;-69
2021/06/18 05:13:22;;;;;;;3.55;2.78;;;22.60;73.60;;;;;;5097397;28;20392;-69
2021/06/18 05:15:48;;;;;;;4.63;2.67;;;22.70;72.90;;;;;;5097101;28;20031;-69
2021/06/18 05:18:14;;;;;;;4.78;2.63;;;22.70;70.90;;;;;;5097463;28;20024;-69
2021/06/18 05:20:41;;;;;;;2.30;2.08;;;22.80;69.70;;;;;;5097481;28;20312;-69
2021/06/18 05:23:09;;;;;;;4.15;2.50;;;23.00;74.30;;;;;;5097092;28;20107;-69
2021/06/18 05:25:34;;;;;;;4.50;2.42;;;23.20;75.10;;;;;;5097356;28;20102;-69
2021/06/18 05:28:00;;;;;;;3.80;2.53;;;23.30;74.30;;;;;;5097364;28;20099;-69
2021/06/18 05:30:26;;;;;;;4.40;3.20;;;23.40;75.00;;;;;;5097024;28;20428;-69
2021/06/18 05:32:51;;;;;;;6.38;3.50;;;23.50;75.00;;;;;;5096945;28;20024;-69
2021/06/18 05:35:17;;;;;;;4.00;3.60;;;23.70;75.80;;;;;;5096846;28;20036;-69
2021/06/18 05:37:43;;;;;;;4.20;3.53;;;23.70;72.80;;;;;;5096894;28;20025;-69
2021/06/18 05:40:09;;;;;;;4.07;3.28;;;24.00;73.20;;;;;;5097229;28;20024;-69
2021/06/18 05:42:36;;;;;;;7.07;3.78;;;24.10;72.00;;;;;;5096825;28;20316;-69
2021/06/18 05:45:02;;;;;;;5.40;3.53;;;24.20;72.30;;;;;;5096776;28;20046;-69
2021/06/18 05:47:28;;;;;;;6.72;4.13;;;24.40;73.60;;;;;;5097137;28;20031;-69
2021/06/18 05:49:53;;;;;;;6.70;4.47;;;24.40;71.90;;;;;;5097095;28;20103;-69
2021/06/18 05:52:19;;;;;;;7.05;4.68;;;24.40;73.60;;;;;;5097068;28;20024;-69
2021/06/18 05:54:45;;;;;;;4.30;3.58;;;24.60;74.60;;;;;;5096916;28;20316;-69
2021/06/18 05:57:10;;;;;;;4.25;3.60;;;24.60;73.90;;;;;;5097012;28;20447;-69
2021/06/18 05:59:36;;;;;;;3.45;3.00;;;24.80;74.80;;;;;;5096673;28;20404;-69
2021/06/18 06:02:02;;;;;;;3.53;2.92;;;25.20;72.40;;;;;;5096628;28;20016;-69
2021/06/18 06:04:28;;;;;;;5.38;3.55;;;25.50;71.30;;;;;;5100293;28;20035;-69
2021/06/18 06:06:54;;;;;;;4.97;4.45;;;25.80;72.20;;;;;;5100749;28;20023;-69
2021/06/18 06:09:20;;;;;;;4.45;4.00;;;25.90;71.50;;;;;;5100781;28;20024;-69
2021/06/18 06:11:45;;;;;;;4.72;3.88;;;26.00;72.30;;;;;;5100691;28;20107;-69
2021/06/18 06:14:16;;;;;;;4.88;4.00;;;26.30;70.90;;;;;;5100889;28;20036;-69
2021/06/18 06:16:42;;;;;;;4.35;3.83;;;26.10;71.60;;;;;;5100890;28;20024;-69
2021/06/18 06:19:08;;;;;;;3.83;3.17;;;25.80;72.40;;;;;;5100923;28;20028;-69
2021/06/18 06:21:34;;;;;;;5.10;3.75;;;25.70;74.70;;;;;;5100837;28;20035;-69
2021/06/18 06:24:00;;;;;;;5.65;4.65;;;25.50;71.00;;;;;;5100825;28;20070;-69
2021/06/18 06:26:25;;;;;;;5.65;4.13;;;25.10;75.60;;;;;;5100443;28;20329;-69
2021/06/18 06:28:51;;;;;;;4.93;4.30;;;24.80;75.00;;;;;;5100671;28;20028;-69
2021/06/18 06:31:17;;;;;;;5.22;4.30;;;24.50;76.40;;;;;;5100251;28;20040;-69
2021/06/18 06:33:43;;;;;;;4.63;3.83;;;24.30;74.90;;;;;;5100561;28;20048;-69
2021/06/18 06:36:09;;;;;;;4.30;3.65;;;24.20;78.20;;;;;;5099246;28;20038;-69
2021/06/18 06:38:35;;;;;;;4.85;3.75;;;24.10;79.90;;;;;;5100487;28;20027;-69
2021/06/18 06:41:00;;;;;;;4.65;3.85;;;24.10;78.60;;;;;;5100462;28;20024;-69
2021/06/18 06:43:26;;;;;;;4.35;3.63;;;24.10;81.00;;;;;;5100459;28;20074;-69
2021/06/18 06:45:52;;;;;;;3.88;3.30;;;24.10;77.40;;;;;;5100349;28;20402;-69
2021/06/18 06:48:18;;;;;;;4.70;3.33;;;24.30;75.00;;;;;;5100317;28;20024;-69
2021/06/18 06:50:44;;;;;;;7.28;3.90;;;24.40;75.90;;;;;;5099977;28;20038;-69
2021/06/18 06:53:09;;;;;;;4.45;4.00;;;24.60;77.70;;;;;;5099984;28;20031;-69
2021/06/18 06:55:36;;;;;;;5.38;4.07;;;24.90;77.00;;;;;;5100084;28;20107;-69
2021/06/18 06:58:04;;;;;;;5.00;3.80;;;25.00;74.20;;;;;;5100146;28;20099;-69
2021/06/18 07:00:30;;;;;;;4.47;3.58;;;25.10;73.80;;;;;;5099820;28;20137;-69
2021/06/18 07:02:56;;;;;;;3.88;3.20;;;25.20;75.30;;;;;;5100072;28;20065;-69
2021/06/18 07:05:21;;;;;;;7.72;3.40;;;25.30;74.30;;;;;;5099997;28;20028;-69
2021/06/18 07:07:47;;;;;;;5.97;3.20;;;25.20;76.70;;;;;;5099696;28;20320;-69
2021/06/18 07:10:13;;;;;;;4.50;3.33;;;25.20;77.00;;;;;;5099961;28;20048;-69
2021/06/18 07:12:39;;;;;;;5.47;3.63;;;25.10;76.70;;;;;;5099440;28;20090;-69
2021/06/18 07:15:05;;;;;;;4.50;3.85;;;25.00;74.90;;;;;;5098918;28;20028;-69
2021/06/18 07:17:31;;;;;;;6.90;3.67;;;24.70;74.80;;;;;;5099171;28;20412;-69
2021/06/18 07:19:57;;;;;;;4.68;3.65;;;24.70;77.80;;;;;;5099439;28;20020;-69
2021/06/18 07:22:24;;;;;;;4.85;3.65;;;24.90;78.90;;;;;;5099392;28;20073;-69
2021/06/18 07:24:50;;;;;;;5.97;4.63;;;24.90;77.40;;;;;;5099263;28;20058;-69
2021/06/18 07:27:16;;;;;;;5.60;4.05;;;25.00;76.80;;;;;;5099284;28;20024;-69
2021/06/18 07:29:43;;;;;;;5.05;4.50;;;24.90;77.30;;;;;;5099324;28;20313;-69
2021/06/18 07:32:10;;;;;;;8.05;4.85;;;24.70;76.70;;;;;;5099493;28;20042;-69
2021/06/18 07:34:36;;;;;;;4.43;3.65;;;24.40;77.30;;;;;;5099418;28;20024;-69
2021/06/18 07:37:02;;;;;;;6.80;4.32;;;24.20;78.00;;;;;;5099020;28;20024;-69
2021/06/18 07:39:28;;;;;;;5.35;4.72;;;24.10;79.10;;;;;;5099058;28;20024;-69
2021/06/18 07:41:54;;;;;;;5.80;4.50;;;24.10;79.60;;;;;;5099266;28;20026;-69
2021/06/18 07:44:19;;;;;;;6.35;5.18;;;24.00;80.10;;;;;;5099384;28;20070;-69
2021/06/18 07:46:45;;;;;;;5.78;5.18;;;24.10;78.60;;;;;;5098863;28;20035;-69
2021/06/18 07:49:11;;;;;;;7.32;4.90;;;24.30;79.20;;;;;;5098861;28;20077;-69
2021/06/18 07:51:37;;;;;;;5.10;4.40;;;24.30;79.60;;;;;;5099136;28;20028;-69
2021/06/18 07:54:03;;;;;;;5.70;4.28;;;24.50;80.30;;;;;;5098708;28;20028;-69
2021/06/18 07:56:32;;;;;;;6.88;4.47;;;24.70;75.50;;;;;;5098680;28;20020;-69
2021/06/18 07:59:02;;;;;;;4.82;3.65;;;24.70;74.40;;;;;;5098939;28;20020;-69
2021/06/18 08:01:28;;;;;;;5.10;3.70;;;24.80;74.60;;;;;;5098965;28;20024;-69
2021/06/18 08:03:53;;;;;;;5.43;3.97;;;24.90;73.60;;;;;;5098582;28;20020;-69
2021/06/18 08:06:19;;;;;;;5.93;3.92;;;24.90;71.00;;;;;;5098798;28;20035;-69
2021/06/18 08:08:45;;;;;;;5.03;3.92;;;25.00;71.50;;;;;;5098460;28;20041;-69
2021/06/18 08:11:11;;;;;;;4.75;3.67;;;24.90;71.20;;;;;;5098715;28;20320;-69
2021/06/18 08:13:37;;;;;;;4.93;3.85;;;24.80;73.40;;;;;;5098728;28;20397;-69
2021/06/18 08:16:04;;;;;;;4.60;3.70;;;24.70;75.20;;;;;;5098535;28;20081;-69
2021/06/18 08:18:31;;;;;;;7.28;4.30;;;24.70;75.40;;;;;;5098533;28;20286;-69
2021/06/18 08:20:57;;;;;;;7.13;3.58;;;24.40;73.80;;;;;;5098570;28;20028;-69
2021/06/18 08:23:22;;;;;;;6.65;3.83;;;24.40;76.40;;;;;;5098176;28;20023;-69
2021/06/18 08:25:50;;;;;;;5.88;4.22;;;24.40;77.60;;;;;;5098209;28;20051;-69
2021/06/18 08:28:16;;;;;;;5.38;4.03;;;24.30;74.80;;;;;;5097566;28;20349;-69
2021/06/18 08:30:41;;;;;;;5.30;4.13;;;24.40;77.60;;;;;;5098137;28;20055;-69
2021/06/18 08:33:07;;;;;;;6.63;4.88;;;24.50;76.90;;;;;;5098307;28;20020;-69
2021/06/18 08:35:33;;;;;;;5.20;4.70;;;24.60;75.50;;;;;;5098177;28;20028;-69
2021/06/18 08:38:02;;;;;;;6.97;5.22;;;24.70;76.20;;;;;;5097945;28;20047;-69
2021/06/18 08:40:33;;;;;;;6.22;4.47;;;24.70;74.50;;;;;;5097941;28;20039;-69
2021/06/18 08:42:59;;;;;;;8.00;5.18;;;24.70;77.00;;;;;;5098119;28;20028;-69
2021/06/18 08:45:25;;;;;;;9.73;5.25;;;24.70;78.10;;;;;;5097768;28;20086;-69
2021/06/18 08:47:51;;;;;;;6.30;5.68;;;24.60;77.10;;;;;;5098040;28;20032;-69
2021/06/18 08:50:26;;;;;;;6.25;4.20;;;24.50;74.60;;;;;;5097718;28;20024;-69
2021/06/18 08:52:56;;;;;;;;;;;24.50;76.70;;;;;;5098378;28;20020;-69
2021/06/18 08:55:25;;;;;;;5.68;4.65;;;24.40;77.00;;;;;;5097573;28;19908;-69
2021/06/18 08:57:58;;;;;;;8.00;4.70;;;24.40;77.90;;;;;;5097818;28;20032;-69
2021/06/18 09:00:24;;;;;;;6.18;5.15;;;24.40;77.70;;;;;;5097554;28;20099;-69
2021/06/18 09:02:50;;;;;;;6.15;5.55;;;24.40;77.10;;;;;;5097791;28;20034;-69
2021/06/18 09:05:17;;;;;;;6.55;4.85;;;24.50;77.80;;;;;;5097702;28;20025;-69
2021/06/18 09:08:04;;;;;;;7.38;5.25;;;24.50;77.70;;;;;;5097695;28;20024;-69
2021/06/18 09:10:40;;;;;;;6.22;5.63;;;24.60;78.90;;;;;;5097360;28;20360;-69
2021/06/18 09:13:19;;;;;;;7.82;5.63;;;24.60;75.60;;;;;;5097407;28;20036;-69
2021/06/18 09:15:53;;;;;;;8.40;5.60;;;24.60;77.20;;;;;;5097468;28;20050;-69
2021/06/18 09:18:39;;;;;;;5.93;5.32;;;24.50;77.40;;;;;;5097515;28;20047;-69
2021/06/18 09:21:05;;;;;;;7.72;4.88;;;24.40;77.60;;;;;;5097457;28;20031;-69
2021/06/18 09:23:33;;;;;;;10.35;5.10;;;24.20;77.90;;;;;;5097113;28;20039;-69
2021/06/18 09:26:33;;;;;;;6.78;5.50;;;24.30;79.50;;;;;;5097027;28;20480;-69
2021/06/18 09:29:13;;;;;;;7.55;4.93;;;24.30;76.70;;;;;;5097068;28;20028;-69
2021/06/18 09:31:46;;;;;;;7.90;5.03;;;24.40;78.70;;;;;;5096904;28;20074;-69
2021/06/18 09:34:13;;;;;;;6.28;5.55;;;24.40;79.10;;;;;;5097236;28;20036;-69
2021/06/18 09:36:39;;;;;;;7.75;6.55;;;24.40;77.70;;;;;;5096877;28;20031;-69
2021/06/18 09:39:16;;;;;;;5.78;5.10;;;24.40;76.00;;;;;;5096805;28;20024;-69
2021/06/18 09:41:44;;;;;;;7.40;5.07;;;24.50;76.20;;;;;;5096908;28;20028;-69
2021/06/18 09:44:21;;;;;;;8.88;5.43;;;24.70;76.40;;;;;;5097087;28;20036;-69
2021/06/18 09:46:53;;;;;;;7.78;5.13;;;25.00;79.20;;;;;;5097099;28;20027;-69
2021/06/18 09:49:33;;;;;;;6.72;4.40;;;25.30;77.50;;;;;;5097107;28;20112;-69
2021/06/18 09:52:03;;;;;;;6.90;5.40;;;25.40;76.70;;;;;;5097039;28;20099;-69
2021/06/18 09:54:31;;;;;;;6.53;4.97;;;25.50;73.40;;;;;;5097049;28;20316;-69
2021/06/18 09:57:17;;;;;;;7.43;4.63;;;25.60;73.90;;;;;;5096956;28;20074;-69
2021/06/18 10:00:07;;;;;;;6.72;5.38;;;25.80;73.60;;;;;;5096657;28;20077;-69
2021/06/18 10:02:37;;;;;;;9.10;4.55;;;25.90;70.60;;;;;;5096944;28;20047;-69
2021/06/18 10:05:07;;;;;;;6.70;4.90;;;26.10;73.10;;;;;;5096915;28;20051;-69
2021/06/18 10:07:34;;;;;;;8.30;4.70;;;26.20;73.60;;;;;;5096937;28;20024;-69
2021/06/18 10:10:02;;;;;;;6.53;4.82;;;26.40;71.50;;;;;;5096958;28;20107;-69
2021/06/18 10:12:30;;;;;;;6.82;4.57;;;26.80;71.90;;;;;;5096845;28;20020;-69
2021/06/18 10:14:56;;;;;;;7.85;5.45;;;27.40;67.20;;;;;;5096952;28;20032;-69
2021/06/18 10:17:22;;;;;;;5.72;5.13;;;28.10;64.60;;;;;;5095481;28;20104;-70
2021/06/18 10:19:48;;;;;;;4.82;4.13;;;28.80;65.80;;;;;;5107098;28;20027;-70
2021/06/18 10:22:19;;;;;;;6.40;4.80;;;29.60;66.30;;;;;;5117189;28;20369;-70
2021/06/18 10:25:10;;;;;;;5.55;4.97;;;30.10;62.00;;;;;;5116926;28;20051;-70
2021/06/18 10:27:41;;;;;;;8.75;4.47;;;30.30;58.30;;;;;;5117131;28;20084;-70
2021/06/18 10:30:27;;;;;;;8.27;4.53;;;30.80;56.90;;;;;;5116676;28;20442;-70
2021/06/18 10:32:54;;;;;;;5.20;4.15;;;30.70;61.40;;;;;;5116689;28;20020;-70
2021/06/18 10:35:49;;;;;;;4.28;3.15;;;30.00;61.40;;;;;;5116658;28;20059;-70
2021/06/18 10:38:37;;;;;;;7.65;4.05;;;29.60;58.80;;;;;;5116808;28;20023;-70
2021/06/18 10:41:12;;;;;;;4.53;3.50;;;28.90;60.40;;;;;;5117001;28;20023;-69
2021/06/18 10:43:41;;;;;;;10.05;3.40;;;28.60;64.90;;;;;;5117015;28;20482;-69
2021/06/18 10:46:35;;;;;;;5.30;3.97;;;28.40;65.70;;;;;;5116931;28;20077;-69
2021/06/18 10:49:02;;;;;;;7.05;3.63;;;28.30;61.20;;;;;;5103034;28;20090;-69
2021/06/18 10:51:33;;;;;;;5.93;4.03;;;28.00;65.80;;;;;;5118933;28;20308;-69
2021/06/18 10:54:12;;;;;;;3.90;3.50;;;27.60;65.40;;;;;;5120646;28;20098;-69
2021/06/18 10:56:44;;;;;;;6.85;4.35;;;27.50;70.10;;;;;;5120321;28;20042;-69
2021/06/18 10:59:31;;;;;;;6.95;3.85;;;27.40;67.20;;;;;;5120279;28;20446;-69
2021/06/18 11:01:58;;;;;;;7.47;3.58;;;27.40;68.20;;;;;;5119646;28;20076;-69
2021/06/18 11:04:44;;;;;;;5.25;3.60;;;27.30;67.90;;;;;;5120161;28;20046;-69
2021/06/18 11:07:33;;;;;;;5.82;3.95;;;27.20;70.70;;;;;;5120482;28;20370;-69
2021/06/18 11:10:02;;;;;;;4.95;3.97;;;27.00;70.30;;;;;;5120100;28;20416;-69
2021/06/18 11:12:29;;;;;;;5.53;3.85;;;26.80;70.60;;;;;;5119992;28;20031;-69
2021/06/18 11:14:56;;;;;;;4.68;3.90;;;26.70;71.60;;;;;;5120378;28;20053;-69
2021/06/18 11:17:40;;;;;;;5.43;4.50;;;26.60;70.80;;;;;;5120208;28;20028;-69
2021/06/18 11:20:13;;;;;;;6.78;4.30;;;26.60;70.90;;;;;;5119886;28;20385;-69
2021/06/18 11:22:47;;;;;;;4.68;4.03;;;26.60;70.00;;;;;;5119873;28;20114;-69
2021/06/18 11:25:43;;;;;;;5.28;4.22;;;26.60;70.20;;;;;;5120058;28;20030;-69
2021/06/18 11:30:56;;;;;;;5.93;4.50;;;26.80;69.40;;;;;;5119722;28;20048;-69
2021/06/18 11:33:52;;;;;;;6.00;4.03;;;27.40;67.90;;;;;;5119869;28;20034;-69
2021/06/18 11:36:20;;;;;;;8.87;4.47;;;28.10;66.70;;;;;;5117949;28;20058;-69
2021/06/18 11:38:52;;;;;;;4.75;3.30;;;28.70;69.90;;;;;;5119482;28;20680;-69
2021/06/18 11:41:19;;;;;;;6.72;4.65;;;29.20;67.90;;;;;;5119482;28;20031;-70
2021/06/18 11:43:48;;;;;;;5.15;4.40;;;29.50;64.50;;;;;;5119624;28;20042;-69
2021/06/18 11:46:13;;;;;;;6.93;3.75;;;29.80;64.90;;;;;;5119663;28;20030;-70
2021/06/18 11:48:40;;;;;;;4.70;4.30;;;29.90;63.60;;;;;;5119579;28;20020;-70
2021/06/18 11:51:06;;;;;;;6.38;4.38;;;30.10;60.20;;;;;;5119274;28;20020;-70
2021/06/18 11:53:36;;;;;;;4.63;4.15;;;30.00;60.10;;;;;;5119213;28;20024;-69
2021/06/18 11:56:03;;;;;;;4.80;4.38;;;29.70;62.70;;;;;;5119350;28;20395;-69
2021/06/18 11:58:33;;;;;;;6.57;4.20;;;29.60;61.00;;;;;;5119447;28;20016;-70
2021/06/18 12:01:20;;;;;;;8.52;4.10;;;29.60;61.50;;;;;;5118842;28;20353;-69
2021/06/18 12:03:48;;;;;;;7.60;4.82;;;29.40;62.10;;;;;;5119133;28;20022;-69
2021/06/18 12:06:24;;;;;;;4.68;3.90;;;29.40;65.60;;;;;;5119235;28;20024;-69
2021/06/18 12:09:11;;;;;;;7.35;4.40;;;29.20;65.20;;;;;;5119254;28;20382;-69
2021/06/18 12:11:39;;;;;;;5.72;4.57;;;28.90;66.80;;;;;;5119193;28;20023;-69
2021/06/18 12:14:06;;;;;;;10.77;4.30;;;28.70;61.90;;;;;;5119171;28;20312;-69
2021/06/18 12:16:35;;;;;;;5.72;4.40;;;28.60;67.10;;;;;;5119005;28;20015;-69
2021/06/18 12:19:19;;;;;;;6.38;4.85;;;28.60;62.60;;;;;;5119041;28;20118;-69
2021/06/18 12:22:08;;;;;;;5.57;4.75;;;28.80;66.50;;;;;;5118990;28;20028;-69
2021/06/18 12:24:47;;;;;;;4.88;4.10;;;28.90;62.20;;;;;;5118663;28;20081;-69
2021/06/18 12:27:14;;;;;;;7.45;5.05;;;29.00;66.50;;;;;;5118847;28;20049;-69
2021/06/18 12:29:52;;;;;;;5.45;4.88;;;28.90;64.80;;;;;;5118590;28;20129;-69
2021/06/18 12:32:19;;;;;;;7.82;5.30;;;28.80;68.50;;;;;;5119080;28;20024;-69
2021/06/18 12:34:51;;;;;;;6.35;5.68;;;28.80;64.70;;;;;;5118592;28;20047;-69
2021/06/18 12:37:20;;;;;;;7.68;5.88;;;28.80;64.00;;;;;;5118354;28;20019;-69
2021/06/18 12:39:52;;;;;;;6.70;5.63;;;28.80;65.20;;;;;;5118613;28;20031;-69
2021/06/18 12:42:24;;;;;;;7.22;5.68;;;28.90;67.60;;;;;;5118289;28;20032;-69
2021/06/18 12:45:07;;;;;;;7.50;5.07;;;28.90;67.10;;;;;;5118649;27;20443;-69
2021/06/18 12:47:34;;;;;;;5.97;4.93;;;28.60;62.90;;;;;;5118498;28;20038;-68
2021/06/18 12:50:29;;;;;;;8.13;5.68;;;28.60;65.70;;;;;;5118429;28;20038;-68
2021/06/18 12:52:59;;;;;;;6.50;5.10;;;28.50;64.70;;;;;;5118085;27;20421;-68
2021/06/18 12:55:30;;;;;;;6.20;5.03;;;28.80;68.10;;;;;;5118215;28;20372;-68
2021/06/18 12:58:08;;;;;;;5.72;5.13;;;29.00;67.20;;;;;;5118036;28;20419;-68
2021/06/18 13:01:05;;;;;;;5.90;5.30;;;29.00;63.70;;;;;;5118730;28;20103;-68